Terminal Aerodrome Forecast
Issued by NWS

Home | Current Version | Previous Version | Text Only | Print | Product List | Glossary On
Versions: 1 2 3 4 5 6 7 8 9 10 11 12 13 14 15 16 17 18 19 20 21 22 23 24 25 26 27 28
622
FTUS45 KSLC 101924 AAA
TAFBCE
TAF AMD
KBCE 101924Z 1019/1118 15006KT P6SM SCT009 BKN080
      TEMPO 1019/1021 BKN009 BKN080
     FM102100 23008KT P6SM SCT009 BKN080
     FM110400 27010KT P6SM SCT030 BKN050=

USA.gov is the U.S. government's official web portal to all federal, state and local government web resources and services.